KAVX

Catalina Airport

Avalon, California, USA
METAR KAVX 231251Z AUTO 27009KT 10SM CLR 24/11 A3000 RMK AO2 SLP129 T02390111 TSNO $
Observed Flight Rules
Jul-23 @ 12:51 UTC (19 minutes ago) Visual Flight Rules
Wind Visibility Clouds
270° at 9 knots 10 miles
  • Clear skies
Temperatures Readings
Current 24°C / 75°F
Dewpoint 11°C / 52°F
Humidity 44%
Altimeter 30" Hg
Pressure 1012.9 hPa
Elevation 482
METAR KAVX 231251Z AUTO 27009KT 10SM CLR 24/11 A3000 RMK AO2 SLP129 T02390111 TSNO $
Observed Flight Rules
Jul-23 @ 12:51 UTC
(19 minutes ago)
VFR
Wind Visibility
270° at 9 knots 10 miles
Clouds
  • Clear skies
Temperature Dewpoint
24°C / 75°F 11°C / 52°F
Humidity Altimeter Pressure
44% 30" Hg 1012.9 hPa